createdAt,value
2024-01-12T00:00:57.007Z,47.00
2024-01-12T00:01:57.067Z,46.91
2024-01-12T00:02:57.140Z,46.98
2024-01-12T00:03:57.118Z,46.96
2024-01-12T00:04:57.179Z,46.93
2024-01-12T00:05:57.280Z,46.91
2024-01-12T00:06:57.263Z,46.91
2024-01-12T00:07:57.284Z,47.00
2024-01-12T00:08:57.410Z,47.00
2024-01-12T00:09:57.332Z,46.97
2024-01-12T00:10:57.362Z,46.92
2024-01-12T00:11:57.479Z,46.93
2024-01-12T00:12:57.444Z,46.90
2024-01-12T00:13:57.464Z,46.93
2024-01-12T00:14:57.621Z,46.89
2024-01-12T00:15:57.542Z,46.90
2024-01-12T00:16:57.564Z,46.88
2024-01-12T00:17:57.683Z,46.95
2024-01-12T00:18:57.683Z,46.95
2024-01-12T00:19:57.672Z,46.96
2024-01-12T00:20:57.831Z,46.93
2024-01-12T00:21:57.769Z,46.87
2024-01-12T00:22:57.793Z,46.90
2024-01-12T00:23:57.848Z,46.86
2024-01-12T00:24:57.874Z,46.87
2024-01-12T00:25:57.883Z,46.81
2024-01-12T00:26:57.933Z,46.81
2024-01-12T00:27:57.956Z,46.82
2024-01-12T00:28:57.990Z,46.81
2024-01-12T00:29:58.079Z,46.79
2024-01-12T00:30:58.163Z,46.80
2024-01-12T00:31:58.110Z,46.86
2024-01-12T00:32:58.202Z,46.83
2024-01-12T00:33:58.222Z,46.87
2024-01-12T00:34:58.249Z,46.81
2024-01-12T00:35:58.293Z,46.85
2024-01-12T00:36:58.263Z,46.84
2024-01-12T00:37:58.312Z,46.84
2024-01-12T00:38:58.462Z,46.77
2024-01-12T00:39:58.384Z,46.79
2024-01-12T00:40:58.410Z,46.80
2024-01-12T00:41:58.575Z,46.81
2024-01-12T00:42:58.481Z,46.79
2024-01-12T00:43:58.559Z,46.87
2024-01-12T00:44:58.710Z,46.89
2024-01-12T00:45:58.604Z,46.78
2024-01-12T00:46:58.674Z,46.83
2024-01-12T00:47:58.795Z,46.75
2024-01-12T00:48:58.784Z,46.75
2024-01-12T00:49:58.765Z,46.79
2024-01-12T00:50:58.827Z,46.79
2024-01-12T00:51:58.830Z,46.71
2024-01-12T00:52:58.869Z,46.78
2024-01-12T00:53:59.056Z,46.73
2024-01-12T00:54:58.941Z,46.74
2024-01-12T00:55:58.976Z,46.73
2024-01-12T00:56:59.134Z,46.76
2024-01-12T00:57:59.038Z,46.70
2024-01-12T00:58:59.076Z,46.69
2024-01-12T00:59:59.136Z,46.68
2024-01-12T01:00:59.243Z,46.64
2024-01-12T01:01:59.446Z,46.68
2024-01-12T01:02:59.266Z,46.71
2024-01-12T01:03:59.343Z,46.64
2024-01-12T01:04:59.295Z,46.68
2024-01-12T01:05:59.512Z,46.61
2024-01-12T01:06:59.441Z,46.61
2024-01-12T01:07:59.418Z,46.58
2024-01-12T01:08:59.562Z,46.58
2024-01-12T01:09:59.483Z,46.56
2024-01-12T01:10:59.509Z,46.60
2024-01-12T01:11:59.584Z,46.56
2024-01-12T01:12:59.581Z,46.57
2024-01-12T01:13:59.627Z,46.60
2024-01-12T01:14:59.688Z,46.59
2024-01-12T01:15:59.682Z,46.57
2024-01-12T01:16:59.713Z,46.62
2024-01-12T01:17:59.953Z,46.58
2024-01-12T01:19:00.000Z,46.64
2024-01-12T01:19:59.931Z,46.55
2024-01-12T01:20:59.926Z,46.58
2024-01-12T01:21:59.896Z,46.55
2024-01-12T01:22:59.980Z,46.57
2024-01-12T01:24:00.122Z,46.53
2024-01-12T01:25:00.003Z,46.48
2024-01-12T01:26:00.034Z,46.52
2024-01-12T01:27:00.303Z,46.49
2024-01-12T01:28:00.152Z,46.48
2024-01-12T01:29:00.169Z,46.48
2024-01-12T01:30:00.377Z,46.53
2024-01-12T01:31:00.347Z,46.50
2024-01-12T01:32:00.324Z,46.48
2024-01-12T01:33:00.464Z,46.56
2024-01-12T01:34:00.515Z,46.51
2024-01-12T01:35:00.515Z,46.49
2024-01-12T01:36:00.451Z,46.54
2024-01-12T01:37:00.435Z,46.51
2024-01-12T01:38:00.495Z,46.51
2024-01-12T01:39:00.540Z,46.45
2024-01-12T01:40:00.531Z,46.47
2024-01-12T01:41:00.575Z,46.47
2024-01-12T01:42:00.627Z,46.53
2024-01-12T01:43:00.620Z,46.56
2024-01-12T01:44:00.654Z,46.50
2024-01-12T01:45:00.738Z,46.50
2024-01-12T01:46:00.790Z,46.45
2024-01-12T01:47:00.806Z,46.50
2024-01-12T01:48:00.889Z,46.45
2024-01-12T01:49:00.855Z,46.44
2024-01-12T01:50:00.871Z,46.44
2024-01-12T01:51:00.976Z,46.43
2024-01-12T01:52:00.944Z,46.42
2024-01-12T01:53:00.968Z,46.45
2024-01-12T01:54:01.020Z,46.49
2024-01-12T01:55:01.046Z,46.42
2024-01-12T01:56:01.052Z,46.46
2024-01-12T01:57:01.226Z,46.50
2024-01-12T01:58:01.141Z,46.57
2024-01-12T01:59:01.177Z,46.50
2024-01-12T02:00:01.307Z,46.42
2024-01-12T02:01:01.241Z,46.43
2024-01-12T02:02:01.294Z,46.49
2024-01-12T02:03:01.433Z,46.46
2024-01-12T02:04:01.449Z,46.43
2024-01-12T02:05:01.406Z,46.45
2024-01-12T02:06:01.584Z,46.42
2024-01-12T02:07:01.464Z,46.35
2024-01-12T02:08:01.508Z,46.41
2024-01-12T02:09:01.796Z,46.37
2024-01-12T02:10:01.560Z,46.35
2024-01-12T02:11:01.604Z,46.42
2024-01-12T02:12:01.686Z,46.35
2024-01-12T02:13:01.682Z,46.36
2024-01-12T02:14:01.713Z,46.39
2024-01-12T02:15:01.808Z,46.42
2024-01-12T02:16:01.812Z,46.36
2024-01-12T02:17:01.867Z,46.29
2024-01-12T02:18:01.986Z,46.37
2024-01-12T02:19:01.940Z,46.37
2024-01-12T02:20:01.996Z,46.39
2024-01-12T02:21:02.016Z,46.36
2024-01-12T02:22:02.018Z,46.40
2024-01-12T02:23:02.061Z,46.37
2024-01-12T02:24:02.147Z,46.33
2024-01-12T02:25:02.138Z,46.33
2024-01-12T02:26:02.163Z,46.38
2024-01-12T02:27:02.274Z,46.37
2024-01-12T02:28:02.257Z,46.35
2024-01-12T02:29:02.328Z,46.29
2024-01-12T02:30:02.386Z,46.31
2024-01-12T02:31:02.407Z,46.30
2024-01-12T02:32:02.365Z,46.30
2024-01-12T02:33:02.530Z,46.32
2024-01-12T02:34:02.522Z,46.38
2024-01-12T02:35:02.484Z,46.41
2024-01-12T02:36:02.613Z,46.48
2024-01-12T02:37:02.581Z,46.52
2024-01-12T02:38:02.651Z,46.55
2024-01-12T02:39:02.707Z,46.65
2024-01-12T02:40:02.741Z,46.66
2024-01-12T02:41:02.775Z,46.81
2024-01-12T02:42:02.893Z,46.78
2024-01-12T02:43:02.914Z,46.89
2024-01-12T02:44:02.941Z,46.92
2024-01-12T02:45:03.089Z,47.04
2024-01-12T02:46:03.066Z,46.98
2024-01-12T02:47:03.109Z,47.13
2024-01-12T02:48:03.269Z,46.95
2024-01-12T02:49:03.289Z,47.09
2024-01-12T02:50:03.266Z,47.01
2024-01-12T02:51:03.361Z,46.92
2024-01-12T02:52:03.364Z,46.91
2024-01-12T02:53:03.416Z,46.87
2024-01-12T02:54:03.547Z,46.87
2024-01-12T02:55:03.544Z,46.97
2024-01-12T02:56:03.605Z,46.88
2024-01-12T02:57:03.710Z,46.94
2024-01-12T02:58:03.708Z,47.02
2024-01-12T02:59:03.753Z,47.00
2024-01-12T03:00:06.723Z,47.01
2024-01-12T03:01:03.916Z,46.97
2024-01-12T03:02:03.886Z,47.03
2024-01-12T03:03:03.953Z,46.97
2024-01-12T03:04:03.968Z,47.03
2024-01-12T03:05:03.964Z,46.95
2024-01-12T03:06:04.085Z,46.89
2024-01-12T03:07:03.935Z,46.85
2024-01-12T03:08:03.956Z,46.97
2024-01-12T03:09:04.028Z,47.01
2024-01-12T03:10:03.984Z,46.90
2024-01-12T03:11:04.000Z,46.95
2024-01-12T03:12:04.021Z,46.93
2024-01-12T03:13:04.040Z,46.91
2024-01-12T03:14:04.048Z,46.95
2024-01-12T03:15:04.184Z,46.94
2024-01-12T03:16:04.085Z,46.97
2024-01-12T03:17:04.107Z,46.97
2024-01-12T03:18:04.265Z,46.96
2024-01-12T03:19:04.393Z,46.89
2024-01-12T03:20:04.164Z,46.88
2024-01-12T03:21:04.230Z,46.79
2024-01-12T03:22:04.177Z,46.83
2024-01-12T03:23:04.202Z,46.95
2024-01-12T03:24:04.249Z,46.92
2024-01-12T03:25:04.213Z,46.94
2024-01-12T03:26:04.234Z,46.93
2024-01-12T03:27:04.323Z,46.99
2024-01-12T03:28:04.329Z,47.06
2024-01-12T03:29:04.412Z,47.08
2024-01-12T03:30:04.638Z,47.04
2024-01-12T03:31:04.556Z,47.01
2024-01-12T03:32:04.588Z,47.14
2024-01-12T03:33:04.698Z,47.05
2024-01-12T03:34:05.077Z,47.05
2024-01-12T03:35:04.880Z,47.00
2024-01-12T03:36:05.028Z,47.02
2024-01-12T03:37:04.926Z,47.07
2024-01-12T03:38:04.995Z,47.10
2024-01-12T03:39:05.068Z,47.08
2024-01-12T03:40:05.164Z,47.15
2024-01-12T03:41:05.198Z,47.08
2024-01-12T03:42:05.371Z,47.07
2024-01-12T03:43:05.325Z,47.22
2024-01-12T03:44:05.472Z,47.13
2024-01-12T03:45:05.558Z,47.13
2024-01-12T03:46:05.535Z,47.18
2024-01-12T03:47:05.617Z,47.20
2024-01-12T03:48:05.882Z,47.23
2024-01-12T03:49:05.847Z,47.28
2024-01-12T03:50:05.833Z,47.32
2024-01-12T03:51:05.982Z,47.27
2024-01-12T03:52:15.016Z,47.26
2024-01-12T03:53:07.066Z,47.26
2024-01-12T03:54:06.023Z,47.46
2024-01-12T03:55:06.013Z,47.41
2024-01-12T03:56:06.063Z,47.44
2024-01-12T03:57:06.107Z,47.45
2024-01-12T03:58:06.067Z,47.39
2024-01-12T03:59:06.091Z,47.39
2024-01-12T04:00:06.159Z,47.48
2024-01-12T04:01:06.132Z,47.48
2024-01-12T04:02:06.181Z,47.41
2024-01-12T04:03:06.301Z,47.44
2024-01-12T04:04:06.386Z,47.49
2024-01-12T04:05:06.386Z,47.55
2024-01-12T04:06:06.491Z,47.51
2024-01-12T04:07:06.615Z,47.46
2024-01-12T04:08:06.624Z,47.40
2024-01-12T04:09:06.762Z,47.37
2024-01-12T04:10:06.793Z,47.42
2024-01-12T04:11:06.894Z,47.38
2024-01-12T04:12:07.023Z,47.44
2024-01-12T04:13:07.020Z,47.41
2024-01-12T04:14:07.110Z,47.48
2024-01-12T04:15:07.337Z,47.44
2024-01-12T04:16:07.272Z,47.43
2024-01-12T04:17:07.352Z,47.44
2024-01-12T04:18:07.570Z,47.38
2024-01-12T04:19:07.567Z,47.33
2024-01-12T04:20:07.594Z,47.35
2024-01-12T04:21:07.700Z,47.34
2024-01-12T04:22:07.747Z,47.38
2024-01-12T04:23:07.830Z,47.31
2024-01-12T04:24:07.952Z,47.35
2024-01-12T04:25:07.962Z,47.32
2024-01-12T04:26:08.218Z,47.32
2024-01-12T04:27:08.228Z,47.33
2024-01-12T04:28:15.739Z,47.39
2024-01-12T04:29:15.773Z,47.27
2024-01-12T04:30:15.836Z,47.35
2024-01-12T04:31:23.082Z,47.40
2024-01-12T04:32:23.103Z,47.38
2024-01-12T04:33:23.227Z,47.33
2024-01-12T04:34:23.254Z,47.33
2024-01-12T04:35:23.191Z,47.20
2024-01-12T04:36:23.174Z,47.25
2024-01-12T04:37:23.204Z,47.23
2024-01-12T04:38:23.246Z,47.29
2024-01-12T04:39:23.327Z,47.17
2024-01-12T04:40:23.264Z,47.24
2024-01-12T04:41:23.281Z,47.20
2024-01-12T04:42:23.288Z,47.26
2024-01-12T04:43:23.345Z,47.25
2024-01-12T04:44:23.364Z,47.29
2024-01-12T04:45:23.348Z,47.30
2024-01-12T04:46:23.367Z,47.31
2024-01-12T04:47:23.414Z,47.33
2024-01-12T04:48:23.564Z,47.37
2024-01-12T04:49:23.476Z,47.29
2024-01-12T04:50:23.462Z,47.27
2024-01-12T04:51:23.469Z,47.39
2024-01-12T04:52:23.475Z,47.28
2024-01-12T04:53:25.593Z,47.22
2024-01-12T04:54:23.510Z,47.16
2024-01-12T04:55:23.547Z,47.25
2024-01-12T04:56:23.563Z,47.15
2024-01-12T04:57:23.584Z,47.18
2024-01-12T04:58:23.636Z,47.11
2024-01-12T04:59:23.767Z,47.11
2024-01-12T05:00:23.754Z,47.24
2024-01-12T05:01:23.835Z,47.19
2024-01-12T05:02:23.850Z,47.12
2024-01-12T05:03:23.945Z,47.17
2024-01-12T05:04:24.029Z,47.15
2024-01-12T05:05:24.012Z,47.08
2024-01-12T05:06:24.147Z,47.02
2024-01-12T05:07:24.113Z,47.16
2024-01-12T05:08:24.178Z,47.19
2024-01-12T05:09:24.217Z,47.13
2024-01-12T05:10:24.274Z,47.18
2024-01-12T05:11:24.346Z,47.17
2024-01-12T05:12:24.377Z,47.22
2024-01-12T05:13:24.408Z,47.21
2024-01-12T05:14:24.484Z,47.21
2024-01-12T05:15:24.511Z,47.26
2024-01-12T05:16:24.567Z,47.22
2024-01-12T05:17:24.683Z,47.22
2024-01-12T05:18:24.875Z,47.22
2024-01-12T05:19:24.830Z,47.24
2024-01-12T05:20:24.855Z,47.14
2024-01-12T05:21:24.848Z,47.17
2024-01-12T05:22:24.906Z,47.23
2024-01-12T05:23:24.988Z,47.25
2024-01-12T05:24:25.052Z,47.18
2024-01-12T05:25:25.119Z,47.29
2024-01-12T05:26:25.187Z,47.34
2024-01-12T05:27:25.227Z,47.25
2024-01-12T05:28:25.289Z,47.30
2024-01-12T05:29:25.380Z,47.22
2024-01-12T05:30:25.512Z,47.27
2024-01-12T05:31:25.482Z,47.31
2024-01-12T05:32:25.548Z,47.23
2024-01-12T05:33:25.643Z,47.22
2024-01-12T05:34:25.635Z,47.26
2024-01-12T05:35:25.660Z,47.24
2024-01-12T05:36:25.679Z,47.33
2024-01-12T05:37:25.730Z,47.26
2024-01-12T05:38:25.828Z,47.38
2024-01-12T05:39:25.852Z,47.45
2024-01-12T05:40:25.911Z,47.32
2024-01-12T05:41:26.027Z,47.33
2024-01-12T05:42:26.046Z,47.35
2024-01-12T05:43:26.089Z,47.32
2024-01-12T05:44:26.182Z,47.27
2024-01-12T05:45:26.217Z,47.17
2024-01-12T05:46:26.261Z,47.30
2024-01-12T05:47:26.356Z,47.25
2024-01-12T05:48:26.534Z,47.31
2024-01-12T05:49:26.460Z,47.24
2024-01-12T05:50:26.535Z,47.19
2024-01-12T05:51:26.530Z,47.27
2024-01-12T05:52:26.601Z,47.21
2024-01-12T05:53:26.730Z,47.14
2024-01-12T05:54:26.747Z,47.16
2024-01-12T05:55:26.829Z,47.24
2024-01-12T05:56:26.930Z,47.18
2024-01-12T05:57:26.958Z,47.14
2024-01-12T05:58:27.033Z,47.14
2024-01-12T05:59:27.160Z,47.13
2024-01-12T06:00:27.161Z,47.03
2024-01-12T06:01:27.234Z,47.04
2024-01-12T06:02:27.352Z,46.97
2024-01-12T06:03:27.373Z,47.11
2024-01-12T06:04:27.443Z,47.13
2024-01-12T06:05:27.614Z,47.07
2024-01-12T06:06:27.639Z,47.07
2024-01-12T06:07:27.674Z,47.11
2024-01-12T06:08:27.780Z,47.09
2024-01-12T06:09:27.814Z,47.18
2024-01-12T06:10:27.873Z,47.07
2024-01-12T06:11:27.974Z,47.06
2024-01-12T06:12:28.025Z,47.06
2024-01-12T06:13:28.106Z,47.05
2024-01-12T06:14:28.293Z,47.08
2024-01-12T06:15:28.254Z,47.14
2024-01-12T06:16:28.337Z,47.14
2024-01-12T06:17:28.494Z,47.13
2024-01-12T06:18:28.711Z,47.09
2024-01-12T06:19:28.867Z,47.15
2024-01-12T06:20:28.726Z,47.22
2024-01-12T06:21:28.754Z,47.12
2024-01-12T06:22:28.908Z,47.08
2024-01-12T06:23:28.938Z,46.95
2024-01-12T06:24:29.069Z,47.07
2024-01-12T06:25:29.092Z,47.03
2024-01-12T06:26:29.251Z,46.76
2024-01-12T06:27:29.286Z,46.77
2024-01-12T06:28:29.351Z,46.72
2024-01-12T06:29:29.468Z,46.72
2024-01-12T06:30:29.550Z,46.63
2024-01-12T06:31:29.590Z,46.51
2024-01-12T06:32:29.695Z,46.68
2024-01-12T06:33:29.803Z,46.81
2024-01-12T06:34:29.876Z,46.84
2024-01-12T06:35:29.974Z,46.89
2024-01-12T06:36:29.996Z,46.86
2024-01-12T06:37:30.080Z,46.89
2024-01-12T06:38:30.191Z,46.76
2024-01-12T06:39:30.233Z,46.71
2024-01-12T06:40:30.296Z,46.58
2024-01-12T06:41:30.400Z,46.57
2024-01-12T06:42:30.445Z,46.54
2024-01-12T06:43:30.575Z,46.52
2024-01-12T06:44:30.586Z,46.52
2024-01-12T06:45:30.665Z,46.43
2024-01-12T06:46:30.752Z,46.41
2024-01-12T06:47:30.846Z,46.35
2024-01-12T06:48:31.034Z,46.27
2024-01-12T06:49:30.981Z,46.27
2024-01-12T06:50:31.107Z,46.24
2024-01-12T06:51:31.121Z,46.16
2024-01-12T06:52:31.207Z,46.11
2024-01-12T06:53:31.315Z,46.09
2024-01-12T06:54:31.351Z,46.06
2024-01-12T06:55:31.454Z,46.07
2024-01-12T06:56:31.491Z,45.99
2024-01-12T06:57:31.544Z,45.96
2024-01-12T06:58:31.619Z,45.97
2024-01-12T06:59:31.731Z,45.97
2024-01-12T07:00:31.710Z,45.93
2024-01-12T07:01:31.764Z,45.81
2024-01-12T07:02:31.794Z,45.88
2024-01-12T07:03:34.724Z,45.91
2024-01-12T07:04:31.818Z,45.85
2024-01-12T07:05:31.994Z,45.92
2024-01-12T07:06:32.076Z,45.83
2024-01-12T07:07:31.860Z,45.75
2024-01-12T07:08:31.878Z,45.69
2024-01-12T07:09:31.895Z,45.66
2024-01-12T07:10:31.917Z,45.59
2024-01-12T07:11:32.285Z,45.56
2024-01-12T07:12:31.937Z,45.51
2024-01-12T07:13:31.974Z,45.49
2024-01-12T07:14:32.013Z,45.44
2024-01-12T07:15:32.004Z,45.45
2024-01-12T07:16:32.014Z,45.40
2024-01-12T07:17:32.119Z,45.41
2024-01-12T07:18:34.861Z,45.28
2024-01-12T07:19:32.121Z,45.23
2024-01-12T07:20:32.171Z,45.24
2024-01-12T07:21:32.124Z,45.20
2024-01-12T07:22:32.156Z,45.25
2024-01-12T07:23:32.333Z,45.20
2024-01-12T07:24:32.209Z,45.19
2024-01-12T07:25:32.251Z,45.13
2024-01-12T07:26:32.283Z,45.15
2024-01-12T07:27:32.303Z,45.08
2024-01-12T07:28:33.157Z,45.12
2024-01-12T07:29:34.447Z,45.00
2024-01-12T07:30:32.394Z,44.96
2024-01-12T07:31:32.369Z,45.04
2024-01-12T07:32:32.417Z,45.01
2024-01-12T07:33:32.525Z,44.98
2024-01-12T07:34:33.294Z,44.94
2024-01-12T07:35:32.447Z,44.96
2024-01-12T07:36:32.549Z,44.92
2024-01-12T07:37:32.621Z,44.91
2024-01-12T07:38:32.747Z,44.87
2024-01-12T07:39:32.751Z,44.89
2024-01-12T07:40:34.212Z,44.84
2024-01-12T07:41:33.068Z,44.83
2024-01-12T07:42:33.088Z,44.81
2024-01-12T07:43:34.171Z,44.85
2024-01-12T07:44:34.213Z,44.86
2024-01-12T07:45:33.197Z,44.86
2024-01-12T07:46:34.183Z,44.85
2024-01-12T07:47:33.326Z,44.87
2024-01-12T07:48:33.438Z,44.89
2024-01-12T07:49:33.326Z,44.91
2024-01-12T07:50:33.368Z,44.78
2024-01-12T07:51:33.298Z,44.88
2024-01-12T07:52:33.304Z,44.90
2024-01-12T07:53:34.287Z,44.90
2024-01-12T07:54:33.465Z,44.84
2024-01-12T07:55:33.547Z,44.89
2024-01-12T07:56:33.623Z,44.87
2024-01-12T07:57:33.680Z,44.91
2024-01-12T07:58:33.790Z,44.99
2024-01-12T07:59:33.890Z,44.97
2024-01-12T08:00:33.891Z,45.02
2024-01-12T08:01:34.747Z,45.02
2024-01-12T08:02:33.987Z,45.05
2024-01-12T08:03:33.940Z,45.09
2024-01-12T08:04:33.981Z,45.08
2024-01-12T08:05:34.873Z,45.10
2024-01-12T08:06:34.059Z,45.11
2024-01-12T08:07:34.057Z,45.12
2024-01-12T08:08:34.081Z,45.13
2024-01-12T08:09:34.047Z,45.19
2024-01-12T08:10:34.065Z,45.20
2024-01-12T08:11:40.182Z,45.11
2024-01-12T08:12:35.133Z,45.18
2024-01-12T08:13:34.190Z,45.21
2024-01-12T08:14:34.169Z,45.17
2024-01-12T08:15:34.185Z,45.18
2024-01-12T08:16:34.370Z,45.01
2024-01-12T08:17:35.831Z,45.00
2024-01-12T08:18:34.270Z,45.00
2024-01-12T08:19:34.251Z,44.94
2024-01-12T08:20:34.317Z,45.08
2024-01-12T08:21:44.815Z,44.98
2024-01-12T08:22:35.353Z,45.03
2024-01-12T08:23:34.373Z,44.91
2024-01-12T08:24:34.377Z,45.06
2024-01-12T08:25:34.374Z,45.09
2024-01-12T08:26:34.440Z,45.28
2024-01-12T08:27:34.422Z,45.38
2024-01-12T08:28:34.432Z,45.46
2024-01-12T08:29:34.509Z,45.60
2024-01-12T08:30:34.515Z,45.56
2024-01-12T08:31:36.268Z,45.80
2024-01-12T08:32:34.683Z,45.85
2024-01-12T08:33:34.827Z,45.82
2024-01-12T08:34:34.850Z,45.87
2024-01-12T08:35:34.838Z,45.94
2024-01-12T08:37:41.494Z,45.99
2024-01-12T08:38:41.549Z,46.06
2024-01-12T08:39:41.443Z,46.15
2024-01-12T08:40:41.438Z,46.29
2024-01-12T08:41:41.449Z,46.17
2024-01-12T08:42:41.406Z,46.07
2024-01-12T08:43:41.372Z,46.26
2024-01-12T08:44:41.372Z,46.24
2024-01-12T08:45:41.330Z,46.10
2024-01-12T08:46:41.308Z,46.28
2024-01-12T08:47:41.400Z,46.40
2024-01-12T08:48:41.395Z,46.28
2024-01-12T08:49:41.343Z,46.30
2024-01-12T08:50:41.321Z,46.24
2024-01-12T08:51:41.233Z,46.33
2024-01-12T08:52:41.194Z,46.34
2024-01-12T08:53:41.250Z,46.35
2024-01-12T08:54:41.155Z,46.34
2024-01-12T08:55:41.196Z,46.29
2024-01-12T08:56:41.199Z,46.35
2024-01-12T08:57:44.173Z,46.37
2024-01-12T08:58:41.108Z,46.26
2024-01-12T08:59:41.098Z,46.24
2024-01-12T09:00:41.077Z,46.27
2024-01-12T09:01:41.017Z,46.29
2024-01-12T09:02:41.106Z,46.17
2024-01-12T09:03:41.245Z,46.26
2024-01-12T09:04:41.062Z,46.31
2024-01-12T09:05:41.140Z,46.29
2024-01-12T09:06:41.039Z,46.30
2024-01-12T09:07:40.891Z,46.27
2024-01-12T09:08:40.926Z,46.23
2024-01-12T09:09:40.878Z,46.27
2024-01-12T09:10:40.886Z,46.09
2024-01-12T09:11:40.868Z,45.16
2024-01-12T09:12:40.861Z,42.64
2024-01-12T09:13:40.831Z,44.33
2024-01-12T09:14:40.887Z,44.75
2024-01-12T09:15:40.791Z,44.34
2024-01-12T09:16:40.846Z,44.09
2024-01-12T09:17:41.089Z,43.70
2024-01-12T09:18:41.238Z,43.49
2024-01-12T09:19:40.983Z,43.60
2024-01-12T09:20:41.126Z,43.63
2024-01-12T09:21:40.988Z,43.58
2024-01-12T09:22:40.982Z,43.79
2024-01-12T09:23:41.070Z,43.94
2024-01-12T09:24:41.034Z,44.07
2024-01-12T09:25:41.031Z,44.30
2024-01-12T09:26:41.105Z,44.58
2024-01-12T09:27:41.054Z,44.89
2024-01-12T09:28:43.660Z,45.06
2024-01-12T09:29:41.686Z,45.38
2024-01-12T09:30:41.091Z,45.65
2024-01-12T09:31:40.997Z,45.75
2024-01-12T09:32:41.085Z,46.01
2024-01-12T09:33:42.929Z,46.17
2024-01-12T09:34:40.985Z,46.32
2024-01-12T09:35:41.716Z,46.33
2024-01-12T09:36:40.874Z,46.61
2024-01-12T09:37:40.870Z,46.65
2024-01-12T09:38:40.862Z,46.96
2024-01-12T09:39:40.823Z,47.02
2024-01-12T09:40:40.799Z,47.35
2024-01-12T09:41:40.804Z,47.35
2024-01-12T09:42:40.727Z,47.70
2024-01-12T09:43:41.680Z,47.81
2024-01-12T09:44:44.962Z,47.91
2024-01-12T09:45:41.725Z,48.05
2024-01-12T09:46:41.579Z,48.32
2024-01-12T09:47:40.732Z,48.32
2024-01-12T09:48:40.812Z,48.56
2024-01-12T09:49:45.819Z,48.66
2024-01-12T09:50:40.783Z,48.84
2024-01-12T09:51:40.726Z,48.90
2024-01-12T09:52:40.725Z,48.98
2024-01-12T09:53:40.782Z,49.00
2024-01-12T09:54:40.702Z,49.21
2024-01-12T09:55:40.710Z,49.43
2024-01-12T09:56:46.149Z,49.21
2024-01-12T09:57:41.731Z,49.62
2024-01-12T09:58:43.483Z,49.52
2024-01-12T09:59:40.689Z,49.84
2024-01-12T10:00:40.621Z,50.07
2024-01-12T10:01:40.575Z,50.21
2024-01-12T10:02:40.563Z,50.11
2024-01-12T10:03:40.619Z,50.14
2024-01-12T10:04:40.723Z,50.34
2024-01-12T10:05:41.288Z,50.53
2024-01-12T10:06:40.540Z,50.93
2024-01-12T10:07:40.434Z,50.67
2024-01-12T10:08:40.478Z,50.79
2024-01-12T10:09:40.388Z,51.00
2024-01-12T10:10:40.348Z,51.05
2024-01-12T10:11:40.359Z,51.03
2024-01-12T10:12:40.295Z,51.33
2024-01-12T10:13:40.231Z,51.15
2024-01-12T10:14:40.242Z,51.48
2024-01-12T10:15:40.205Z,51.72
2024-01-12T10:16:40.735Z,51.85
2024-01-12T10:17:40.339Z,51.55
2024-01-12T10:18:40.153Z,51.73
2024-01-12T10:19:40.138Z,51.49
2024-01-12T10:20:40.095Z,51.12
2024-01-12T10:21:39.968Z,51.37
2024-01-12T10:22:41.724Z,51.74
2024-01-12T10:23:41.009Z,51.54
2024-01-12T10:24:40.005Z,51.63
2024-01-12T10:25:39.983Z,51.77
2024-01-12T10:26:40.634Z,51.72
2024-01-12T10:27:40.594Z,51.87
2024-01-12T10:28:40.013Z,52.06
2024-01-12T10:29:40.628Z,51.94
2024-01-12T10:30:40.075Z,52.16
2024-01-12T10:31:40.044Z,52.25
2024-01-12T10:32:54.945Z,52.33
2024-01-12T10:33:40.148Z,52.17
2024-01-12T10:34:40.068Z,52.14
2024-01-12T10:35:39.982Z,52.45
2024-01-12T10:36:39.874Z,52.62
2024-01-12T10:37:39.850Z,52.45
2024-01-12T10:38:40.008Z,52.76
2024-01-12T10:39:39.770Z,52.68
2024-01-12T10:40:39.721Z,52.86
2024-01-12T10:41:39.718Z,52.89
2024-01-12T10:42:39.637Z,53.01
2024-01-12T10:43:41.190Z,53.19
2024-01-12T10:44:39.590Z,53.15
2024-01-12T10:45:41.278Z,53.29
2024-01-12T10:46:39.469Z,53.20
2024-01-12T10:47:39.503Z,53.61
2024-01-12T10:48:40.266Z,53.53
2024-01-12T10:49:39.450Z,53.79
2024-01-12T10:50:39.345Z,53.62
2024-01-12T10:51:39.277Z,53.76
2024-01-12T10:52:39.236Z,53.96
2024-01-12T10:53:39.250Z,53.76
2024-01-12T10:54:39.154Z,53.83
2024-01-12T10:55:39.132Z,53.93
2024-01-12T10:56:39.103Z,54.09
2024-01-12T10:57:39.048Z,54.08
2024-01-12T10:58:45.748Z,54.34
2024-01-12T10:59:39.014Z,54.82
2024-01-12T11:00:38.940Z,54.75
2024-01-12T11:01:38.871Z,54.43
2024-01-12T11:02:38.860Z,54.39
2024-01-12T11:03:40.793Z,54.49
2024-01-12T11:04:38.736Z,54.44
2024-01-12T11:05:38.809Z,54.41
2024-01-12T11:06:38.742Z,54.58
2024-01-12T11:07:38.742Z,54.56
2024-01-12T11:08:38.673Z,54.88
2024-01-12T11:09:38.506Z,54.98
2024-01-12T11:10:38.468Z,55.02
2024-01-12T11:11:38.429Z,55.27
2024-01-12T11:12:38.413Z,55.08
2024-01-12T11:13:38.348Z,55.06
2024-01-12T11:14:38.391Z,54.88
2024-01-12T11:15:38.274Z,54.93
2024-01-12T11:16:38.213Z,54.99
2024-01-12T11:17:38.537Z,55.02
2024-01-12T11:18:40.212Z,54.89
2024-01-12T11:19:38.195Z,54.68
2024-01-12T11:20:38.093Z,54.55
2024-01-12T11:21:37.998Z,54.71
2024-01-12T11:22:37.956Z,54.66
2024-01-12T11:23:40.740Z,54.57
2024-01-12T11:24:38.048Z,54.76
2024-01-12T11:25:37.886Z,54.92
2024-01-12T11:26:37.767Z,55.08
2024-01-12T11:27:37.706Z,55.18
2024-01-12T11:28:37.668Z,55.15
2024-01-12T11:29:37.650Z,55.35
2024-01-12T11:30:37.638Z,55.28
2024-01-12T11:31:37.576Z,55.46
2024-01-12T11:32:37.651Z,55.68
2024-01-12T11:33:37.613Z,55.96
2024-01-12T11:34:37.533Z,56.17
2024-01-12T11:35:37.414Z,56.36
2024-01-12T11:36:37.321Z,56.44
2024-01-12T11:37:37.353Z,56.50
2024-01-12T11:38:37.234Z,56.55
2024-01-12T11:39:37.194Z,56.62
2024-01-12T11:40:38.206Z,56.74
2024-01-12T11:41:37.120Z,56.80
2024-01-12T11:42:37.060Z,56.86
2024-01-12T11:43:37.034Z,56.89
2024-01-12T11:44:37.077Z,56.88
2024-01-12T11:45:36.933Z,56.78
2024-01-12T11:46:36.881Z,56.90
2024-01-12T11:47:36.912Z,57.04
2024-01-12T11:48:36.884Z,56.92
2024-01-12T11:49:36.802Z,57.06
2024-01-12T11:50:36.739Z,56.85
2024-01-12T11:51:36.666Z,56.95
2024-01-12T11:52:36.625Z,56.89
2024-01-12T11:53:36.594Z,57.03
2024-01-12T11:54:36.561Z,57.23
2024-01-12T11:55:36.495Z,57.13
2024-01-12T11:56:36.468Z,57.13
2024-01-12T11:57:36.427Z,57.25
2024-01-12T11:58:36.364Z,57.29
2024-01-12T11:59:36.719Z,57.28
2024-01-12T12:00:36.351Z,57.58
2024-01-12T12:01:36.318Z,57.30
2024-01-12T12:02:36.794Z,57.46
2024-01-12T12:03:36.150Z,57.30
2024-01-12T12:04:36.124Z,57.24
2024-01-12T12:05:36.197Z,57.23
2024-01-12T12:06:36.210Z,57.11
2024-01-12T12:07:35.963Z,57.24
2024-01-12T12:08:35.973Z,57.23
2024-01-12T12:09:35.871Z,57.18
2024-01-12T12:10:41.386Z,57.12
2024-01-12T12:11:36.833Z,57.17
2024-01-12T12:12:35.764Z,57.21
2024-01-12T12:13:39.068Z,57.13
2024-01-12T12:14:35.680Z,57.21
2024-01-12T12:15:35.612Z,57.28
2024-01-12T12:16:35.584Z,57.49
2024-01-12T12:17:35.610Z,57.47
2024-01-12T12:18:35.605Z,57.54
2024-01-12T12:19:35.666Z,57.52
2024-01-12T12:20:35.533Z,57.65
2024-01-12T12:21:35.382Z,57.58
2024-01-12T12:22:35.304Z,57.65
2024-01-12T12:23:35.280Z,57.59
2024-01-12T12:24:35.714Z,57.51
2024-01-12T12:25:35.171Z,57.76
2024-01-12T12:26:35.168Z,57.62
2024-01-12T12:27:35.091Z,57.64
2024-01-12T12:28:35.040Z,57.57
2024-01-12T12:29:35.013Z,57.62
2024-01-12T12:30:35.022Z,57.64
2024-01-12T12:31:34.910Z,57.70
2024-01-12T12:32:34.946Z,57.59
2024-01-12T12:33:35.020Z,57.70
2024-01-12T12:34:34.893Z,57.79
2024-01-12T12:35:34.801Z,57.64
2024-01-12T12:36:34.722Z,57.65
2024-01-12T12:37:34.671Z,57.46
2024-01-12T12:38:34.688Z,57.61
2024-01-12T12:39:34.642Z,57.76
2024-01-12T12:40:34.568Z,57.66
2024-01-12T12:41:34.593Z,57.57
2024-01-12T12:42:34.495Z,57.49
2024-01-12T12:43:34.467Z,57.39
2024-01-12T12:44:34.499Z,57.41
2024-01-12T12:45:34.397Z,57.42
2024-01-12T12:46:34.365Z,57.24
2024-01-12T12:47:34.412Z,57.36
2024-01-12T12:48:35.431Z,57.22
2024-01-12T12:49:34.454Z,57.21
2024-01-12T12:50:35.222Z,57.21
2024-01-12T12:51:34.339Z,57.23
2024-01-12T12:52:34.356Z,57.24
2024-01-12T12:53:34.424Z,57.19
2024-01-12T12:54:34.389Z,57.22